| Date | Time | Temp. (oF) | Dew Point (oF) | Rel. Hum. (%) | Press. (in.) | Wind Dir. | Wind Speed (mph) | Hourly Rainfall (in.) |
|
|---|---|---|---|---|---|---|---|---|---|
| 1 | 12/12 | 00:00 | 32 | 29 | 92 | 30.25 | SW | 0 | 0.00 |
| 2 | 12/11 | 23:00 | 33 | 29 | 86 | 30.24 | NW | 0 | 0.00 |
| 3 | 12/11 | 22:00 | 35 | 30 | 83 | 30.23 | NW | 0 | 0.00 |
| 4 | 12/11 | 21:00 | 37 | 28 | 70 | 30.21 | NNW | 2 | 0.00 |
| 5 | 12/11 | 20:00 | 38 | 29 | 70 | 30.20 | NW | 3 | 0.00 |
| 6 | 12/11 | 19:00 | 38 | 28 | 68 | 30.18 | WNW | 2 | 0.00 |
| 7 | 12/11 | 18:00 | 40 | 28 | 63 | 30.14 | NW | 3 | 0.00 |
| 8 | 12/11 | 17:00 | 42 | 29 | 62 | 30.10 | NW | 10 | 0.00 |
| 9 | 12/11 | 16:00 | 43 | 31 | 63 | 30.06 | NW | 6 | 0.00 |
| 10 | 12/11 | 15:00 | 45 | 30 | 56 | 30.03 | SSW | 10 | 0.00 |
| 11 | 12/11 | 14:00 | 46 | 33 | 61 | 30.01 | N | 9 | 0.00 |
| 12 | 12/11 | 13:00 | 45 | 34 | 66 | 30.01 | NW | 10 | 0.00 |
| 13 | 12/11 | 12:00 | 45 | 37 | 74 | 29.99 | N | 10 | 0.00 |
| 14 | 12/11 | 11:00 | 45 | 39 | 80 | 29.99 | NW | 12 | 0.00 |
| 15 | 12/11 | 10:00 | 45 | 40 | 83 | 29.98 | WNW | 6 | 0.00 |
| 16 | 12/11 | 09:00 | 42 | 39 | 91 | 29.96 | WNW | 2 | 0.00 |
| 17 | 12/11 | 08:00 | 40 | 38 | 96 | 29.94 | WNW | 5 | 0.00 |
| 18 | 12/11 | 07:00 | 40 | 39 | 97 | 29.91 | W | 2 | 0.00 |
| 19 | 12/11 | 06:00 | 42 | 41 | 98 | 29.88 | WNW | 8 | 0.00 |
| 20 | 12/11 | 05:00 | 42 | 41 | 100 | 29.85 | SSW | 4 | 0.00 |
| 21 | 12/11 | 04:00 | 43 | 42 | 100 | 29.80 | WNW | 6 | 0.02 |
| 22 | 12/11 | 03:00 | 44 | 44 | 100 | 29.78 | SW | 6 | 0.00 |
| 23 | 12/11 | 02:00 | 45 | 45 | 100 | 29.76 | WNW | 3 | 0.00 |
| 24 | 12/11 | 01:00 | 46 | 45 | 100 | 29.73 | NNE | 9 | 0.04 |